Shingobee, Minnesota
Current Conditions -  °F | °C
As of 1:15 PM on Friday 21 Nov 2014 (Local Time) from KY49 Reporting Station
Clear Clear  
Wind Chill: 17°   Ceiling: Unl
Heat Index: 28°   Visibility: 10mi
Dew Point: 18°   Wind: 14mph
Humidity: 64%   Direction: 190°S
Pressure: 29.81"   Gusts: 24mph
Location:  47.0507°N, 94.6083°W
Report Text: KY49 211915Z AUTO 19012G21KT 10SM CLR M02/M08 A2981 RMK AO2 T10201079
Loading
Personal Weather Stations






























Interactive Weather Map New forecast layout! Learn more

10-Day Weather Forecast

Advertisements
Track Severe Weather on mobile